createdAt,value
2022-09-02T00:03:01.399Z,1.64
2022-09-02T00:08:31.648Z,2.03
2022-09-02T00:13:57.524Z,1.91
2022-09-02T00:19:23.463Z,1.88
2022-09-02T00:24:48.220Z,1.75
2022-09-02T00:30:12.576Z,1.79
2022-09-02T00:35:35.267Z,2.09
2022-09-02T00:40:59.228Z,2.04
2022-09-02T00:46:22.255Z,1.88
2022-09-02T00:51:47.405Z,1.98
2022-09-02T00:57:10.200Z,2.12
2022-09-02T01:02:35.477Z,1.95
2022-09-02T01:07:59.200Z,1.95
2022-09-02T01:13:26.455Z,1.89
2022-09-02T01:18:48.426Z,1.89
2022-09-02T01:24:16.070Z,1.49
2022-09-02T01:29:43.918Z,1.75
2022-09-02T01:35:12.849Z,1.58
2022-09-02T01:40:38.296Z,1.79
2022-09-02T01:46:04.575Z,1.60
2022-09-02T01:51:31.459Z,1.59
2022-09-02T01:56:56.218Z,1.75
2022-09-02T02:02:17.919Z,1.70
2022-09-02T02:07:45.035Z,1.49
2022-09-02T02:13:09.969Z,1.66
2022-09-02T02:18:34.868Z,1.83
2022-09-02T02:24:00.219Z,2.19
2022-09-02T02:29:25.570Z,1.83
2022-09-02T02:34:53.092Z,1.69
2022-09-02T02:40:19.962Z,1.86
2022-09-02T02:45:46.852Z,2.04
2022-09-02T02:51:13.189Z,1.89
2022-09-02T02:56:36.714Z,1.62
2022-09-02T03:02:02.414Z,1.82
2022-09-02T03:07:29.192Z,1.74
2022-09-02T03:12:55.692Z,1.82
2022-09-02T03:18:19.931Z,1.77
2022-09-02T03:23:43.922Z,1.86
2022-09-02T03:29:12.357Z,1.84
2022-09-02T03:34:39.830Z,1.58
2022-09-02T03:40:04.473Z,1.68
2022-09-02T03:45:28.937Z,1.74
2022-09-02T03:50:53.078Z,1.76
2022-09-02T03:56:19.150Z,1.74
2022-09-02T04:01:46.063Z,1.83
2022-09-02T04:07:15.310Z,1.77
2022-09-02T04:12:40.418Z,1.85
2022-09-02T04:18:07.640Z,1.83
2022-09-02T04:23:30.214Z,1.95
2022-09-02T04:28:56.992Z,2.04
2022-09-02T04:34:23.625Z,1.84
2022-09-02T04:39:45.415Z,1.82
2022-09-02T04:45:13.585Z,1.99
2022-09-02T04:50:42.121Z,2.12
2022-09-02T04:56:08.364Z,1.99
2022-09-02T05:01:34.128Z,1.95
2022-09-02T05:06:59.519Z,2.09
2022-09-02T05:12:26.821Z,2.24
2022-09-02T05:17:49.783Z,2.15
2022-09-02T05:23:11.462Z,2.04
2022-09-02T05:28:33.144Z,2.38
2022-09-02T05:33:59.275Z,2.09
2022-09-02T05:39:25.568Z,2.24
2022-09-02T05:44:47.351Z,2.19
2022-09-02T05:50:14.655Z,2.28
2022-09-02T05:55:39.616Z,2.13
2022-09-02T06:01:01.626Z,2.15
2022-09-02T06:06:31.060Z,2.21
2022-09-02T06:11:58.777Z,1.86
2022-09-02T06:17:26.487Z,2.03
2022-09-02T06:22:52.535Z,2.02
2022-09-02T06:28:16.888Z,2.02
2022-09-02T06:33:44.590Z,1.82
2022-09-02T06:39:10.666Z,1.89
2022-09-02T06:44:37.313Z,1.71
2022-09-02T06:50:01.847Z,1.29
2022-09-02T06:55:30.248Z,0.91
2022-09-02T07:00:56.141Z,0.87
2022-09-02T07:06:18.310Z,0.73
2022-09-02T07:11:40.408Z,0.89
2022-09-02T07:17:02.514Z,0.82
2022-09-02T07:22:24.021Z,0.72
2022-09-02T07:27:46.304Z,0.71
2022-09-02T07:33:15.831Z,0.94
2022-09-02T07:38:43.239Z,0.73
2022-09-02T07:44:11.027Z,0.73
2022-09-02T07:55:09.336Z,0.80
2022-09-02T08:00:29.083Z,0.95
2022-09-02T08:05:55.803Z,0.86
2022-09-02T08:11:17.702Z,0.73
2022-09-02T08:16:43.704Z,0.80
2022-09-02T08:22:09.328Z,0.79
2022-09-02T08:27:37.053Z,0.77
2022-09-02T08:32:59.007Z,0.68
2022-09-02T08:38:26.149Z,0.60
2022-09-02T08:43:48.077Z,0.62
2022-09-02T08:49:19.142Z,0.68
2022-09-02T08:54:47.543Z,0.66
2022-09-02T09:00:13.471Z,0.68
2022-09-02T09:05:40.846Z,0.45
2022-09-02T09:11:05.136Z,0.47
2022-09-02T09:16:34.068Z,0.67
2022-09-02T09:22:02.218Z,0.57
2022-09-02T09:27:27.522Z,0.46
2022-09-02T09:32:56.010Z,0.69
2022-09-02T09:38:22.584Z,0.48
2022-09-02T09:43:52.521Z,0.57
2022-09-02T09:49:18.057Z,0.52
2022-09-02T09:54:48.038Z,0.41
2022-09-02T10:00:27.808Z,0.56
2022-09-02T10:05:52.011Z,0.40
2022-09-02T10:11:18.294Z,0.53
2022-09-02T10:16:40.611Z,0.69
2022-09-02T10:22:10.357Z,0.73
2022-09-02T10:27:49.976Z,0.63
2022-09-02T10:33:21.321Z,0.46
2022-09-02T10:38:51.872Z,0.50
2022-09-02T10:44:20.519Z,0.56
2022-09-02T10:49:47.447Z,0.54
2022-09-02T10:55:15.360Z,0.49
2022-09-02T11:00:41.985Z,0.62
2022-09-02T11:06:10.383Z,0.57
2022-09-02T11:11:34.892Z,0.41
2022-09-02T11:16:57.029Z,0.48
2022-09-02T11:22:27.524Z,0.55
2022-09-02T11:27:48.953Z,0.55
2022-09-02T11:33:18.199Z,0.42
2022-09-02T11:38:46.634Z,0.63
2022-09-02T11:44:11.741Z,0.58
2022-09-02T11:50:00.354Z,0.53
2022-09-02T11:55:35.225Z,0.48
2022-09-02T12:01:02.297Z,0.44
2022-09-02T12:06:54.309Z,0.69
2022-09-02T12:12:39.829Z,0.60
2022-09-02T12:18:22.285Z,0.50
2022-09-02T12:23:51.245Z,0.69
2022-09-02T12:29:30.754Z,0.57
2022-09-02T12:34:58.362Z,0.47
2022-09-02T12:40:32.166Z,0.59
2022-09-02T12:45:53.719Z,0.58
2022-09-02T12:51:20.975Z,0.62
2022-09-02T12:57:18.395Z,0.36
2022-09-02T13:02:44.317Z,0.40
2022-09-02T13:08:10.291Z,0.31
2022-09-02T13:13:53.484Z,0.36
2022-09-02T13:20:02.217Z,0.63
2022-09-02T13:25:43.642Z,0.49
2022-09-02T13:31:37.427Z,0.51
2022-09-02T13:37:04.280Z,0.49
2022-09-02T13:42:41.252Z,0.34
2022-09-02T13:48:08.215Z,0.76
2022-09-02T13:53:53.718Z,0.75
2022-09-02T13:59:01.420Z,0.66
2022-09-02T14:04:28.884Z,0.40
2022-09-02T14:09:56.050Z,0.63
2022-09-02T14:15:24.191Z,0.39
2022-09-02T14:20:46.179Z,0.36
2022-09-02T14:26:12.456Z,0.46
2022-09-02T14:31:37.433Z,0.45
2022-09-02T14:37:01.359Z,0.35
2022-09-02T14:42:40.344Z,0.41
2022-09-02T14:48:05.371Z,0.40
2022-09-02T14:53:28.806Z,0.25
2022-09-02T14:58:51.782Z,0.37
2022-09-02T15:04:17.776Z,0.72
2022-09-02T15:09:43.004Z,0.42
2022-09-02T15:15:09.901Z,0.46
2022-09-02T15:20:37.330Z,0.28
2022-09-02T15:26:04.889Z,0.38
2022-09-02T15:31:28.929Z,0.43
2022-09-02T15:36:58.048Z,0.45
2022-09-02T15:42:24.763Z,0.46
2022-09-02T15:47:46.464Z,0.43
2022-09-02T15:53:11.576Z,0.40
2022-09-02T15:58:38.665Z,0.64
2022-09-02T16:04:05.595Z,0.45
2022-09-02T16:09:32.375Z,0.48
2022-09-02T16:14:59.101Z,0.34
2022-09-02T16:20:23.621Z,0.58
2022-09-02T16:25:45.910Z,1.03
2022-09-02T16:31:24.267Z,0.61
2022-09-02T16:36:50.801Z,0.67
2022-09-02T16:42:17.051Z,0.47
2022-09-02T16:47:45.472Z,0.41
2022-09-02T16:53:12.046Z,0.45
2022-09-02T16:58:35.754Z,0.88
2022-09-02T17:03:57.548Z,0.51
2022-09-02T17:09:19.721Z,0.42
2022-09-02T17:14:47.061Z,0.74
2022-09-02T17:20:14.910Z,0.41
2022-09-02T17:25:42.615Z,0.39
2022-09-02T17:31:03.451Z,0.77
2022-09-02T17:36:33.359Z,0.96
2022-09-02T17:42:08.297Z,0.50
2022-09-02T17:47:28.980Z,0.69
2022-09-02T17:52:50.364Z,0.64
2022-09-02T17:58:15.260Z,0.71
2022-09-02T18:03:42.298Z,0.50
2022-09-02T18:09:11.125Z,0.73
2022-09-02T18:14:34.608Z,0.57
2022-09-02T18:20:00.475Z,0.56
2022-09-02T18:25:28.418Z,0.69
2022-09-02T18:31:05.832Z,0.62
2022-09-02T18:36:31.039Z,0.65
2022-09-02T18:41:54.654Z,0.65
2022-09-02T18:47:26.562Z,0.69
2022-09-02T18:52:54.129Z,0.49
2022-09-02T18:58:19.177Z,0.65
2022-09-02T19:03:50.146Z,0.50
2022-09-02T19:09:17.502Z,0.74
2022-09-02T19:14:44.757Z,0.53
2022-09-02T19:20:11.061Z,0.66
2022-09-02T19:25:35.850Z,0.57
2022-09-02T19:30:59.638Z,0.64
2022-09-02T19:36:26.207Z,0.60
2022-09-02T19:41:50.477Z,0.52
2022-09-02T19:48:06.019Z,0.59
2022-09-02T19:52:44.099Z,0.70
2022-09-02T19:58:07.632Z,0.69
2022-09-02T20:03:34.273Z,0.45
2022-09-02T20:09:01.110Z,0.57
2022-09-02T20:14:23.763Z,0.53
2022-09-02T20:19:51.150Z,0.59
2022-09-02T20:25:17.839Z,0.49
2022-09-02T20:30:43.557Z,0.54
2022-09-02T20:36:07.371Z,0.40
2022-09-02T20:41:32.989Z,0.44
2022-09-02T20:46:55.562Z,0.55
2022-09-02T20:52:32.958Z,0.51
2022-09-02T20:58:00.010Z,0.57
2022-09-02T21:03:21.934Z,0.59
2022-09-02T21:08:48.441Z,0.79
2022-09-02T21:14:16.545Z,0.68
2022-09-02T21:19:38.915Z,0.53
2022-09-02T21:25:06.653Z,0.57
2022-09-02T21:30:28.910Z,0.59
2022-09-02T21:35:57.797Z,0.50
2022-09-02T21:41:25.339Z,0.55
2022-09-02T21:46:48.189Z,0.99
2022-09-02T21:52:10.087Z,0.49
2022-09-02T21:57:37.199Z,0.57
2022-09-02T22:03:09.783Z,0.51
2022-09-02T22:08:35.634Z,0.32
2022-09-02T22:14:00.772Z,0.35
2022-09-02T22:19:27.633Z,0.68
2022-09-02T22:24:54.438Z,0.49
2022-09-02T22:30:22.341Z,1.07
2022-09-02T22:35:49.357Z,0.43
2022-09-02T22:41:16.479Z,0.63
2022-09-02T22:46:41.153Z,0.46
2022-09-02T22:52:07.255Z,0.36
2022-09-02T22:57:31.829Z,0.57
2022-09-02T23:02:54.960Z,0.60
2022-09-02T23:08:22.378Z,0.55
2022-09-02T23:13:47.814Z,0.50
2022-09-02T23:19:20.540Z,0.65
2022-09-02T23:24:48.363Z,0.47
2022-09-02T23:30:14.632Z,0.33
2022-09-02T23:35:40.856Z,0.63
2022-09-02T23:41:08.638Z,0.53
2022-09-02T23:46:30.340Z,0.59
2022-09-02T23:51:59.434Z,0.43
2022-09-02T23:57:27.690Z,0.47
